createdAt,value
2023-05-19T00:01:00.660Z,12.71
2023-05-19T00:03:28.921Z,12.70
2023-05-19T00:05:57.431Z,12.69
2023-05-19T00:08:25.795Z,12.71
2023-05-19T00:10:53.825Z,12.68
2023-05-19T00:13:22.023Z,12.62
2023-05-19T00:15:51.063Z,12.55
2023-05-19T00:18:18.947Z,12.56
2023-05-19T00:20:46.738Z,12.49
2023-05-19T00:23:14.539Z,12.46
2023-05-19T00:25:42.978Z,12.45
2023-05-19T00:28:10.858Z,12.42
2023-05-19T00:30:38.605Z,12.39
2023-05-19T00:33:06.399Z,12.38
2023-05-19T00:35:34.344Z,12.37
2023-05-19T00:38:02.223Z,12.38
2023-05-19T00:40:32.194Z,12.41
2023-05-19T00:43:00.557Z,12.38
2023-05-19T00:45:29.084Z,12.35
2023-05-19T00:47:57.229Z,12.34
2023-05-19T00:50:25.155Z,12.36
2023-05-19T00:52:53.303Z,12.34
2023-05-19T00:55:28.275Z,12.33
2023-05-19T00:57:57.016Z,12.32
2023-05-19T01:00:24.816Z,12.28
2023-05-19T01:02:54.216Z,12.27
2023-05-19T01:05:22.671Z,12.29
2023-05-19T01:07:56.491Z,12.28
2023-05-19T01:10:24.377Z,12.28
2023-05-19T01:12:52.253Z,12.25
2023-05-19T01:15:20.266Z,12.24
2023-05-19T01:17:56.036Z,12.20
2023-05-19T01:20:36.042Z,12.20
2023-05-19T01:23:15.136Z,12.12
2023-05-19T01:26:09.800Z,12.10
2023-05-19T01:28:56.702Z,12.05
2023-05-19T01:31:26.813Z,12.01
2023-05-19T01:33:55.269Z,12.03
2023-05-19T01:36:23.591Z,12.03
2023-05-19T01:38:53.974Z,12.05
2023-05-19T01:41:23.068Z,12.09
2023-05-19T01:43:51.396Z,12.10
2023-05-19T01:46:19.377Z,12.08
2023-05-19T01:48:48.370Z,12.04
2023-05-19T01:51:16.274Z,12.02
2023-05-19T01:53:44.172Z,12.02
2023-05-19T01:56:21.613Z,12.00
2023-05-19T01:58:57.756Z,11.97
2023-05-19T02:01:52.042Z,11.97
2023-05-19T02:04:49.323Z,11.94
2023-05-19T02:07:42.685Z,11.92
2023-05-19T02:10:14.758Z,11.89
2023-05-19T02:12:44.891Z,11.90
2023-05-19T02:15:18.113Z,11.94
2023-05-19T02:17:50.729Z,11.97
2023-05-19T02:20:18.997Z,11.97
2023-05-19T02:22:46.807Z,12.00
2023-05-19T02:25:14.735Z,12.02
2023-05-19T02:27:42.589Z,12.01
2023-05-19T02:30:10.973Z,12.05
2023-05-19T02:32:38.787Z,12.05
2023-05-19T02:35:06.816Z,12.07
2023-05-19T02:37:35.462Z,12.08
2023-05-19T02:40:04.227Z,12.06
2023-05-19T02:42:32.054Z,12.07
2023-05-19T02:45:00.911Z,12.11
2023-05-19T02:47:28.725Z,12.11
2023-05-19T02:49:56.531Z,12.12
2023-05-19T02:52:24.326Z,12.14
2023-05-19T02:54:52.129Z,12.14
2023-05-19T02:57:19.988Z,12.13
2023-05-19T02:59:48.050Z,12.12
2023-05-19T03:02:15.933Z,12.10
2023-05-19T03:04:43.964Z,12.08
2023-05-19T03:07:13.577Z,12.09
2023-05-19T03:09:41.724Z,12.08
2023-05-19T03:12:09.501Z,12.07
2023-05-19T03:14:38.689Z,12.08
2023-05-19T03:17:10.408Z,12.10
2023-05-19T03:19:38.207Z,12.09
2023-05-19T03:22:06.606Z,12.10
2023-05-19T03:24:34.519Z,12.08
2023-05-19T03:27:02.789Z,12.08
2023-05-19T03:29:31.146Z,12.09
2023-05-19T03:31:59.991Z,12.10
2023-05-19T03:34:27.960Z,12.06
2023-05-19T03:36:55.808Z,12.05
2023-05-19T03:39:23.676Z,12.09
2023-05-19T03:41:51.580Z,12.09
2023-05-19T03:44:19.496Z,12.08
2023-05-19T03:46:47.277Z,12.08
2023-05-19T03:49:28.845Z,12.06
2023-05-19T03:52:14.105Z,11.97
2023-05-19T03:54:42.799Z,11.98
2023-05-19T03:57:13.849Z,12.02
2023-05-19T03:59:41.972Z,12.04
2023-05-19T04:02:09.780Z,12.01
2023-05-19T04:04:38.185Z,12.05
2023-05-19T04:07:07.206Z,12.09
2023-05-19T04:09:35.751Z,12.13
2023-05-19T04:12:03.719Z,12.14
2023-05-19T04:14:31.442Z,12.14
2023-05-19T04:16:59.936Z,12.14
2023-05-19T04:19:27.983Z,12.11
2023-05-19T04:21:57.099Z,12.13
2023-05-19T04:24:24.958Z,12.18
2023-05-19T04:26:53.316Z,12.22
2023-05-19T04:29:23.501Z,12.23
2023-05-19T04:31:52.860Z,12.25
2023-05-19T04:34:20.856Z,12.25
2023-05-19T04:36:51.003Z,12.26
2023-05-19T04:39:21.706Z,12.28
2023-05-19T04:41:49.555Z,12.35
2023-05-19T04:44:18.479Z,12.40
2023-05-19T04:46:46.394Z,12.47
2023-05-19T04:49:14.688Z,12.53
2023-05-19T04:51:42.567Z,12.55
2023-05-19T04:54:10.417Z,12.56
2023-05-19T04:56:38.127Z,12.56
2023-05-19T04:59:06.994Z,12.54
2023-05-19T05:01:35.604Z,12.54
2023-05-19T05:04:03.724Z,12.54
2023-05-19T05:06:31.858Z,12.49
2023-05-19T05:09:03.982Z,12.49
2023-05-19T05:11:32.100Z,12.52
2023-05-19T05:14:00.201Z,12.54
2023-05-19T05:16:28.346Z,12.51
2023-05-19T05:18:57.595Z,12.59
2023-05-19T05:21:26.244Z,12.67
2023-05-19T05:23:54.620Z,12.72
2023-05-19T05:26:23.350Z,12.77
2023-05-19T05:28:51.133Z,12.78
2023-05-19T05:31:19.026Z,12.77
2023-05-19T05:33:46.873Z,12.82
2023-05-19T05:36:14.818Z,12.85
2023-05-19T05:38:43.126Z,12.87
2023-05-19T05:41:11.609Z,12.88
2023-05-19T05:43:39.962Z,12.91
2023-05-19T05:46:08.171Z,12.99
2023-05-19T05:48:37.086Z,13.03
2023-05-19T05:51:06.131Z,13.08
2023-05-19T05:53:40.706Z,13.14
2023-05-19T05:56:10.839Z,13.18
2023-05-19T05:58:41.077Z,13.20
2023-05-19T06:01:11.872Z,13.25
2023-05-19T06:03:45.067Z,13.27
2023-05-19T06:06:13.388Z,13.33
2023-05-19T06:08:41.281Z,13.51
2023-05-19T06:11:09.465Z,13.66
2023-05-19T06:13:37.559Z,13.71
2023-05-19T06:16:06.210Z,13.74
2023-05-19T06:18:34.007Z,13.76
2023-05-19T06:21:01.890Z,13.85
2023-05-19T06:23:30.906Z,13.91
2023-05-19T06:25:58.803Z,13.91
2023-05-19T06:28:26.601Z,14.01
2023-05-19T06:30:54.418Z,14.08
2023-05-19T06:33:22.250Z,14.16
2023-05-19T06:35:50.138Z,14.23
2023-05-19T06:38:18.234Z,14.28
2023-05-19T06:40:46.056Z,14.28
2023-05-19T06:43:13.845Z,14.24
2023-05-19T06:45:41.585Z,14.18
2023-05-19T06:48:09.456Z,14.06
2023-05-19T06:50:37.519Z,13.96
2023-05-19T06:53:06.141Z,13.97
2023-05-19T06:55:37.132Z,13.92
2023-05-19T06:58:10.489Z,13.86
2023-05-19T07:00:38.338Z,13.85
2023-05-19T07:03:06.375Z,13.82
2023-05-19T07:05:34.204Z,13.76
2023-05-19T07:08:02.150Z,13.72
2023-05-19T07:10:32.226Z,13.70
2023-05-19T07:13:00.192Z,13.79
2023-05-19T07:15:28.021Z,13.84
2023-05-19T07:17:55.908Z,13.88
2023-05-19T07:20:23.721Z,13.90
2023-05-19T07:22:51.598Z,13.97
2023-05-19T07:25:22.188Z,13.95
2023-05-19T07:27:51.883Z,13.95
2023-05-19T07:30:19.596Z,14.01
2023-05-19T07:32:47.480Z,13.96
2023-05-19T07:35:15.595Z,13.96
2023-05-19T07:37:43.490Z,14.11
2023-05-19T07:40:11.646Z,14.20
2023-05-19T07:42:39.420Z,14.23
2023-05-19T07:45:07.942Z,14.24
2023-05-19T07:47:35.724Z,14.29
2023-05-19T07:50:04.531Z,14.27
2023-05-19T07:52:32.473Z,14.22
2023-05-19T07:55:00.499Z,14.21
2023-05-19T07:57:28.334Z,14.17
2023-05-19T07:59:56.654Z,14.14
2023-05-19T08:02:24.686Z,14.07
2023-05-19T08:04:53.229Z,14.11
2023-05-19T08:07:21.078Z,14.16
2023-05-19T08:09:49.317Z,14.18
2023-05-19T08:12:17.171Z,14.27
2023-05-19T08:14:44.916Z,14.35
2023-05-19T08:17:12.754Z,14.40
2023-05-19T08:19:40.490Z,14.37
2023-05-19T08:22:08.188Z,14.37
2023-05-19T08:24:36.110Z,14.46
2023-05-19T08:27:04.895Z,14.50
2023-05-19T08:29:32.848Z,14.53
2023-05-19T08:32:02.485Z,14.43
2023-05-19T08:34:30.284Z,14.41
2023-05-19T08:36:58.289Z,14.39
2023-05-19T08:39:28.994Z,14.33
2023-05-19T08:41:56.696Z,14.34
2023-05-19T08:44:24.575Z,14.41
2023-05-19T08:46:55.411Z,14.53
2023-05-19T08:49:32.493Z,14.56
2023-05-19T08:52:17.301Z,14.63
2023-05-19T08:55:00.857Z,14.64
2023-05-19T08:57:29.090Z,14.67
2023-05-19T08:59:58.344Z,14.71
2023-05-19T09:02:27.532Z,14.77
2023-05-19T09:04:56.663Z,14.86
2023-05-19T09:07:26.197Z,14.85
2023-05-19T09:09:54.106Z,14.85
2023-05-19T09:12:23.149Z,14.79
2023-05-19T09:14:55.029Z,14.78
2023-05-19T09:17:23.574Z,14.77
2023-05-19T09:19:51.574Z,14.79
2023-05-19T09:22:20.685Z,14.74
2023-05-19T09:24:49.293Z,14.69
2023-05-19T09:27:26.275Z,14.70
2023-05-19T09:29:54.019Z,14.72
2023-05-19T09:32:26.900Z,14.86
2023-05-19T09:34:55.275Z,15.12
2023-05-19T09:37:24.470Z,15.30
2023-05-19T09:39:53.504Z,15.38
2023-05-19T09:42:30.193Z,15.38
2023-05-19T09:45:02.640Z,15.40
2023-05-19T09:47:41.442Z,15.42
2023-05-19T09:50:11.901Z,15.37
2023-05-19T09:52:41.074Z,15.28
2023-05-19T09:55:13.595Z,15.26
2023-05-19T09:57:41.712Z,15.23
2023-05-19T10:00:19.926Z,15.22
2023-05-19T10:02:48.872Z,15.21
2023-05-19T10:05:20.397Z,15.23
2023-05-19T10:07:52.993Z,15.32
2023-05-19T10:10:22.870Z,15.33
2023-05-19T10:12:50.998Z,15.34
2023-05-19T10:15:29.901Z,15.41
2023-05-19T10:17:59.563Z,15.52
2023-05-19T10:20:28.799Z,15.55
2023-05-19T10:22:57.810Z,15.57
2023-05-19T10:25:25.799Z,15.65
2023-05-19T10:27:59.747Z,15.69
2023-05-19T10:30:34.577Z,15.73
2023-05-19T10:33:07.772Z,15.83
2023-05-19T10:36:09.204Z,15.90
2023-05-19T10:38:48.274Z,15.95
2023-05-19T10:41:34.071Z,16.14
2023-05-19T10:44:21.397Z,16.28
2023-05-19T10:46:49.181Z,16.57
2023-05-19T10:49:23.338Z,16.88
2023-05-19T10:51:56.698Z,16.98
2023-05-19T10:54:46.553Z,16.90
2023-05-19T10:57:17.487Z,16.98
2023-05-19T10:59:45.436Z,17.08
2023-05-19T11:02:41.534Z,17.16
2023-05-19T11:05:18.066Z,17.12
2023-05-19T11:07:57.354Z,17.18
2023-05-19T11:10:27.369Z,17.06
2023-05-19T11:15:27.954Z,17.33
2023-05-19T11:17:56.156Z,17.52
2023-05-19T11:20:28.904Z,17.65
2023-05-19T11:23:14.681Z,17.53
2023-05-19T11:25:51.282Z,17.48
2023-05-19T11:28:25.571Z,17.48
2023-05-19T11:30:55.262Z,17.54
2023-05-19T11:33:27.136Z,17.61
2023-05-19T11:35:58.490Z,17.71
2023-05-19T11:38:28.567Z,17.65
2023-05-19T11:40:56.795Z,17.62
2023-05-19T11:43:25.921Z,17.60
2023-05-19T11:45:55.122Z,17.68
2023-05-19T11:48:23.784Z,17.63
2023-05-19T11:50:52.457Z,17.49
2023-05-19T11:53:21.065Z,17.50
2023-05-19T11:55:49.618Z,17.48
2023-05-19T11:58:17.722Z,17.51
2023-05-19T12:00:47.678Z,17.53
2023-05-19T12:03:17.419Z,17.48
2023-05-19T12:05:48.401Z,17.45
2023-05-19T12:08:18.910Z,17.48
2023-05-19T12:10:53.870Z,17.55
2023-05-19T12:13:22.907Z,17.66
2023-05-19T12:15:53.029Z,17.79
2023-05-19T12:18:21.589Z,17.84
2023-05-19T12:20:49.750Z,17.91
2023-05-19T12:23:17.726Z,17.98
2023-05-19T12:25:45.752Z,17.95
2023-05-19T12:28:14.020Z,17.81
2023-05-19T12:30:51.808Z,17.69
2023-05-19T12:33:19.796Z,17.78
2023-05-19T12:35:50.009Z,17.92
2023-05-19T12:38:19.799Z,18.03
2023-05-19T12:40:47.573Z,18.05
2023-05-19T12:43:22.557Z,18.03
2023-05-19T12:45:50.291Z,17.99
2023-05-19T12:48:19.108Z,18.02
2023-05-19T12:50:47.096Z,18.10
2023-05-19T12:53:15.361Z,18.08
2023-05-19T12:55:45.124Z,18.07
2023-05-19T12:58:13.713Z,18.01
2023-05-19T13:00:43.865Z,17.96
2023-05-19T13:03:17.131Z,17.95
2023-05-19T13:05:47.405Z,17.98
2023-05-19T13:08:20.336Z,17.98
2023-05-19T13:10:51.533Z,17.95
2023-05-19T13:13:19.452Z,17.78
2023-05-19T13:15:50.604Z,17.66
2023-05-19T13:18:18.925Z,17.75
2023-05-19T13:20:49.312Z,17.81
2023-05-19T13:23:17.277Z,17.89
2023-05-19T13:25:45.473Z,18.01
2023-05-19T13:28:16.170Z,17.99
2023-05-19T13:30:45.034Z,17.83
2023-05-19T13:33:12.978Z,17.68
2023-05-19T13:35:40.896Z,17.63
2023-05-19T13:38:10.278Z,17.59
2023-05-19T13:40:40.230Z,17.49
2023-05-19T13:43:09.025Z,17.49
2023-05-19T13:45:37.124Z,17.47
2023-05-19T13:48:07.298Z,17.46
2023-05-19T13:50:35.740Z,17.43
2023-05-19T13:53:03.887Z,17.44
2023-05-19T13:55:32.735Z,17.41
2023-05-19T13:58:00.714Z,17.49
2023-05-19T14:00:28.563Z,17.57
2023-05-19T14:02:56.689Z,17.60
2023-05-19T14:05:24.524Z,17.66
2023-05-19T14:07:52.483Z,17.70
2023-05-19T14:10:21.894Z,17.69
2023-05-19T14:13:25.310Z,17.77
2023-05-19T14:15:38.479Z,17.78
2023-05-19T14:18:07.393Z,17.81
2023-05-19T14:20:36.199Z,17.78
2023-05-19T14:23:04.392Z,17.76
2023-05-19T14:25:32.409Z,17.70
2023-05-19T14:28:00.302Z,17.65
2023-05-19T14:30:28.159Z,17.63
2023-05-19T14:32:56.355Z,17.63
2023-05-19T14:35:25.354Z,17.61
2023-05-19T14:37:53.313Z,17.39
2023-05-19T14:40:21.349Z,17.35
2023-05-19T14:42:49.000Z,17.35
2023-05-19T14:45:16.888Z,17.40
2023-05-19T14:47:44.689Z,17.40
2023-05-19T14:50:12.494Z,17.41
2023-05-19T14:52:42.917Z,17.37
2023-05-19T14:55:11.453Z,17.40
2023-05-19T14:57:39.187Z,17.51
2023-05-19T15:00:09.254Z,17.61
2023-05-19T15:02:37.031Z,17.60
2023-05-19T15:05:05.268Z,17.61
2023-05-19T15:07:33.132Z,17.62
2023-05-19T15:10:02.091Z,17.64
2023-05-19T15:12:30.254Z,17.63
2023-05-19T15:14:58.112Z,17.61
2023-05-19T15:17:26.029Z,17.60
2023-05-19T15:19:53.923Z,17.59
2023-05-19T15:22:21.644Z,17.56
2023-05-19T15:24:49.846Z,17.56
2023-05-19T15:27:17.681Z,17.54
2023-05-19T15:29:46.338Z,17.49
2023-05-19T15:32:15.699Z,17.47
2023-05-19T15:34:44.964Z,17.53
2023-05-19T15:37:12.958Z,17.52
2023-05-19T15:39:40.746Z,17.49
2023-05-19T15:42:08.639Z,17.47
2023-05-19T15:44:36.676Z,17.44
2023-05-19T15:47:04.587Z,17.38
2023-05-19T15:49:32.278Z,17.37
2023-05-19T15:51:59.985Z,17.38
2023-05-19T15:54:27.672Z,17.35
2023-05-19T15:56:55.482Z,17.30
2023-05-19T15:59:23.362Z,17.21
2023-05-19T16:01:53.103Z,17.16
2023-05-19T16:04:21.356Z,17.07
2023-05-19T16:06:49.263Z,17.05
2023-05-19T16:09:16.974Z,17.05
2023-05-19T16:11:44.700Z,17.03
2023-05-19T16:14:12.427Z,16.99
2023-05-19T16:16:40.168Z,16.99
2023-05-19T16:19:08.197Z,17.00
2023-05-19T16:21:36.085Z,16.99
2023-05-19T16:24:04.231Z,16.95
2023-05-19T16:26:32.045Z,16.87
2023-05-19T16:29:00.294Z,16.83
2023-05-19T16:31:28.585Z,16.80
2023-05-19T16:33:56.821Z,16.73
2023-05-19T16:36:24.692Z,16.74
2023-05-19T16:38:53.977Z,16.75
2023-05-19T16:41:22.903Z,16.76
2023-05-19T16:43:50.965Z,16.77
2023-05-19T16:46:20.584Z,16.73
2023-05-19T16:48:49.143Z,16.69
2023-05-19T16:51:17.396Z,16.68
2023-05-19T16:53:45.689Z,16.68
2023-05-19T16:56:14.056Z,16.68
2023-05-19T16:58:42.179Z,16.67
2023-05-19T17:01:12.534Z,16.64
2023-05-19T17:03:40.789Z,16.61
2023-05-19T17:06:09.304Z,16.57
2023-05-19T17:08:37.258Z,16.55
2023-05-19T17:11:06.602Z,16.55
2023-05-19T17:13:36.515Z,16.53
2023-05-19T17:16:04.764Z,16.50
2023-05-19T17:18:32.498Z,16.48
2023-05-19T17:21:03.919Z,16.46
2023-05-19T17:23:32.619Z,16.44
2023-05-19T17:26:00.557Z,16.43
2023-05-19T17:28:29.318Z,16.39
2023-05-19T17:30:57.083Z,16.36
2023-05-19T17:33:24.828Z,16.35
2023-05-19T17:35:52.893Z,16.32
2023-05-19T17:38:20.779Z,16.30
2023-05-19T17:40:48.540Z,16.28
2023-05-19T17:43:16.326Z,16.27
2023-05-19T17:45:44.185Z,16.26
2023-05-19T17:48:12.212Z,16.25
2023-05-19T17:50:40.006Z,16.22
2023-05-19T17:53:07.967Z,16.19
2023-05-19T17:55:35.957Z,16.16
2023-05-19T17:58:03.951Z,16.14
2023-05-19T18:00:33.134Z,16.12
2023-05-19T18:03:01.930Z,16.11
2023-05-19T18:05:30.010Z,16.10
2023-05-19T18:07:59.357Z,16.08
2023-05-19T18:10:27.974Z,16.06
2023-05-19T18:12:55.737Z,16.03
2023-05-19T18:15:24.055Z,16.01
2023-05-19T18:17:51.880Z,15.99
2023-05-19T18:20:19.821Z,15.97
2023-05-19T18:22:47.598Z,15.96
2023-05-19T18:25:17.030Z,15.94
2023-05-19T18:27:49.444Z,15.92
2023-05-19T18:30:17.556Z,15.91
2023-05-19T18:32:45.459Z,15.90
2023-05-19T18:35:13.717Z,15.88
2023-05-19T18:37:41.615Z,15.86
2023-05-19T18:40:09.952Z,15.84
2023-05-19T18:42:38.150Z,15.81
2023-05-19T18:45:06.824Z,15.78
2023-05-19T18:47:35.009Z,15.75
2023-05-19T18:50:03.551Z,15.76
2023-05-19T18:52:32.503Z,15.78
2023-05-19T18:55:04.354Z,15.79
2023-05-19T18:57:32.537Z,15.76
2023-05-19T19:00:01.410Z,15.73
2023-05-19T19:02:29.609Z,15.70
2023-05-19T19:04:59.988Z,15.71
2023-05-19T19:07:30.834Z,15.70
2023-05-19T19:10:02.445Z,15.73
2023-05-19T19:12:41.419Z,15.74
2023-05-19T19:15:10.105Z,15.75
2023-05-19T19:17:42.816Z,15.78
2023-05-19T19:23:34.488Z,15.69
2023-05-19T19:26:02.354Z,15.58
2023-05-19T19:28:31.054Z,15.66
2023-05-19T19:30:58.829Z,15.72
2023-05-19T19:33:27.834Z,15.77
2023-05-19T19:35:55.585Z,15.78
2023-05-19T19:38:23.381Z,15.79
2023-05-19T19:41:58.946Z,15.79
2023-05-19T19:49:14.555Z,15.62
2023-05-19T20:04:29.905Z,15.69
2023-05-19T23:38:55.948Z,15.29
